Flight Track Log - Related Links

Times and Time Zones

All times are in EDT time to prevent confusion due to time zone crossing. See the LXJ537 flight status page for this flight to view local times or setup timezone preferences in your user account.

Time Position Orientation Groundspeed Altitude Reporting Facility
EDT Latitude Longitude Course Direction KTS MPH feet Rate Location/Type
Mon 07:54:10 AM 27.6794 -80.4633 319° Northwest 384 442 1,900  Level Miami Center
Mon 07:56:00 AM 27.8290 -80.5957 319° Northwest  Level FlightAware Approximate
Mon 07:57:00 AM 28.1932 -80.9765 319° Northwest  Level FlightAware Approximate
Mon 08:03:00 AM 28.4380 -81.2214 319° Northwest  Level FlightAware Approximate
Mon 08:04:00 AM 28.5234 -81.3135 300° West  Level FlightAware Approximate
Mon 08:05:00 AM 28.6316 -81.3333 North  Level FlightAware Approximate
Mon 08:06:00 AM 28.7495 -81.3433 355° North  Level FlightAware Approximate
Mon 08:07:00 AM 28.8674 -81.3546 355° North  Level FlightAware Approximate
Mon 08:08:00 AM 28.9854 -81.3653 355° North  Level FlightAware Approximate
Mon 08:09:00 AM 29.1033 -81.3761 355° North  Level FlightAware Approximate
Mon 08:10:00 AM 29.2212 -81.3875 354° North  Level FlightAware Approximate
Mon 08:11:00 AM 29.3390 -81.4006 354° North  Level FlightAware Approximate
Mon 08:12:00 AM 29.4568 -81.4137 354° North  Level FlightAware Approximate
Mon 08:13:00 AM 29.5745 -81.4274 354° North  Level FlightAware Approximate
Mon 08:14:00 AM 29.6922 -81.4412 354° North  Level FlightAware Approximate
Mon 08:15:00 AM 29.8100 -81.4536 356° North  Level FlightAware Approximate
Mon 08:16:00 AM 29.9280 -81.4634 356° North  Level FlightAware Approximate
Mon 08:17:00 AM 30.0460 -81.4739 356° North  Level FlightAware Approximate
Mon 08:18:00 AM 30.1640 -81.4846 356° North  Level FlightAware Approximate
Mon 08:19:00 AM 30.2819 -81.4953 356° North  Level FlightAware Approximate
Mon 08:20:00 AM 30.3993 -81.5122 351° North  Level FlightAware Approximate
Mon 08:21:00 AM 30.5161 -81.5338 351° North  Level FlightAware Approximate
Mon 08:22:00 AM 30.6330 -81.5554 351° North  Level FlightAware Approximate
Mon 08:23:00 AM 30.7498 -81.5771 351° North  Level FlightAware Approximate
Mon 08:24:00 AM 30.8666 -81.5989 351° North  Level FlightAware Approximate
Mon 08:25:00 AM 30.9834 -81.6208 351° North  Level FlightAware Approximate
Mon 08:26:00 AM 31.1003 -81.6428 351° North  Level FlightAware Approximate
Mon 08:27:00 AM 31.2171 -81.6648 351° North  Level FlightAware Approximate
Mon 08:28:00 AM 31.3339 -81.6868 351° North  Level FlightAware Approximate
Mon 08:29:00 AM 31.4507 -81.7090 351° North  Level FlightAware Approximate
Mon 08:30:00 AM 31.5675 -81.7311 351° North  Level FlightAware Approximate
Mon 08:31:00 AM 31.6843 -81.7533 351° North  Level FlightAware Approximate
Mon 08:32:00 AM 31.8012 -81.7748 351° North  Level FlightAware Approximate
Mon 08:33:00 AM 31.9181 -81.7965 351° North  Level FlightAware Approximate
Mon 08:34:00 AM 32.0350 -81.8182 351° North  Level FlightAware Approximate
Mon 08:35:00 AM 32.1516 -81.8414 349° North  Level FlightAware Approximate
Mon 08:36:00 AM 32.2678 -81.8681 349° North  Level FlightAware Approximate
Mon 08:37:00 AM 32.3839 -81.8949 349° North  Level FlightAware Approximate
Mon 08:38:00 AM 32.5001 -81.9218 349° North  Level FlightAware Approximate
Mon 08:39:00 AM 32.6166 -81.9457 351° North  Level FlightAware Approximate
Mon 08:40:00 AM 32.7335 -81.9675 351° North  Level FlightAware Approximate
Mon 08:41:00 AM 32.8504 -81.9894 351° North  Level FlightAware Approximate
Mon 08:42:00 AM 32.9673 -82.0113 351° North  Level FlightAware Approximate
Mon 08:43:00 AM 33.0842 -82.0333 351° North  Level FlightAware Approximate
Mon 08:44:00 AM 33.2010 -82.0553 351° North  Level FlightAware Approximate
Mon 08:45:00 AM 33.3179 -82.0774 351° North  Level FlightAware Approximate
Mon 08:46:00 AM 33.4348 -82.0995 351° North  Level FlightAware Approximate
Mon 08:47:00 AM 33.5517 -82.1217 351° North  Level FlightAware Approximate
Mon 08:48:00 AM 33.6685 -82.1440 351° North  Level FlightAware Approximate
Mon 08:49:00 AM 33.7715 -82.2084 326° Northwest  Level FlightAware Approximate
Mon 08:50:00 AM 33.8693 -82.2885 326° Northwest  Level FlightAware Approximate
Mon 08:51:00 AM 33.9702 -82.3631 329° Northwest  Level FlightAware Approximate
Mon 08:52:00 AM 34.0714 -82.4370 327° Northwest  Level FlightAware Approximate
Mon 08:53:00 AM 34.1707 -82.5148 327° Northwest  Level FlightAware Approximate
Mon 08:54:00 AM 34.2699 -82.5927 327° Northwest  Level FlightAware Approximate
Mon 08:55:00 AM 34.3691 -82.6708 327° Northwest  Level FlightAware Approximate
Mon 08:56:00 AM 34.4683 -82.7491 327° Northwest  Level FlightAware Approximate
Mon 08:57:00 AM 34.5674 -82.8275 327° Northwest  Level FlightAware Approximate
Mon 08:58:00 AM 34.6667 -82.9056 327° Northwest  Level FlightAware Approximate
Mon 08:59:00 AM 34.7663 -82.9833 327° Northwest  Level FlightAware Approximate
Mon 09:00:00 AM 34.8659 -83.0611 327° Northwest  Level FlightAware Approximate
Mon 09:01:00 AM 34.9655 -83.1392 327° Northwest  Level FlightAware Approximate
Mon 09:02:00 AM 35.0649 -83.2174 327° Northwest  Level FlightAware Approximate
Mon 09:03:00 AM 35.1644 -83.2958 327° Northwest  Level FlightAware Approximate
Mon 09:04:00 AM 35.2637 -83.3744 327° Northwest  Level FlightAware Approximate
Mon 09:05:00 AM 35.3631 -83.4532 327° Northwest  Level FlightAware Approximate
Mon 09:06:00 AM 35.4623 -83.5322 327° Northwest  Level FlightAware Approximate
Mon 09:07:00 AM 35.5616 -83.6114 327° Northwest  Level FlightAware Approximate
Mon 09:08:00 AM 35.6607 -83.6908 327° Northwest  Level FlightAware Approximate
Mon 09:09:00 AM 35.7598 -83.7704 327° Northwest  Level FlightAware Approximate
Mon 09:10:00 AM 35.8589 -83.8502 327° Northwest  Level FlightAware Approximate
Mon 09:11:00 AM 35.9591 -83.9278 329° Northwest  Level FlightAware Approximate
Mon 09:12:00 AM 36.0601 -84.0039 329° Northwest  Level FlightAware Approximate
Mon 09:13:00 AM 36.1611 -84.0803 329° Northwest  Level FlightAware Approximate
Mon 09:14:00 AM 36.2621 -84.1568 329° Northwest  Level FlightAware Approximate
Mon 09:15:00 AM 36.3629 -84.2336 329° Northwest  Level FlightAware Approximate
Mon 09:16:00 AM 36.4638 -84.3104 329° Northwest  Level FlightAware Approximate
Mon 09:17:00 AM 36.5648 -84.3871 329° Northwest  Level FlightAware Approximate
Mon 09:18:00 AM 36.6657 -84.4640 329° Northwest  Level FlightAware Approximate
Mon 09:19:00 AM 36.7666 -84.5411 329° Northwest  Level FlightAware Approximate
Mon 09:20:00 AM 36.8675 -84.6183 329° Northwest  Level FlightAware Approximate
Mon 09:21:00 AM 36.9684 -84.6957 328° Northwest  Level FlightAware Approximate
Mon 09:22:00 AM 37.0692 -84.7733 328° Northwest  Level FlightAware Approximate
Mon 09:23:00 AM 37.1700 -84.8511 328° Northwest  Level FlightAware Approximate
Mon 09:24:00 AM 37.2707 -84.9291 328° Northwest  Level FlightAware Approximate
Mon 09:25:00 AM 37.3713 -85.0073 328° Northwest  Level FlightAware Approximate
Mon 09:26:00 AM 37.4740 -85.0813 331° Northwest  Level FlightAware Approximate
Mon 09:27:00 AM 37.5770 -85.1549 330° Northwest  Level FlightAware Approximate
Mon 09:28:00 AM 37.6783 -85.2319 328° Northwest  Level FlightAware Approximate
Mon 09:29:00 AM 37.7787 -85.3112 328° Northwest  Level FlightAware Approximate
Mon 09:30:00 AM 37.8790 -85.3906 328° Northwest  Level FlightAware Approximate
Mon 09:31:00 AM 37.9792 -85.4703 328° Northwest  Level FlightAware Approximate
Mon 09:32:00 AM 38.0794 -85.5502 328° Northwest  Level FlightAware Approximate
Mon 09:33:00 AM 38.1849 -85.6179 335° Northwest  Level FlightAware Approximate
Mon 09:34:00 AM 38.2918 -85.6826 335° Northwest  Level FlightAware Approximate
Mon 09:35:00 AM 38.3986 -85.7475 335° Northwest  Level FlightAware Approximate
Mon 09:36:00 AM 38.5054 -85.8126 335° Northwest  Level FlightAware Approximate
Mon 09:37:00 AM 38.6126 -85.8766 336° Northwest  Level FlightAware Approximate
Mon 09:38:00 AM 38.7203 -85.9393 336° Northwest  Level FlightAware Approximate
Mon 09:39:00 AM 38.8280 -86.0021 336° Northwest  Level FlightAware Approximate
Mon 09:40:00 AM 38.9357 -86.0652 336° Northwest  Level FlightAware Approximate
Mon 09:41:00 AM 39.0425 -86.1307 334° Northwest  Level FlightAware Approximate
Mon 09:42:00 AM 39.1494 -86.1960 335° Northwest  Level FlightAware Approximate
Mon 09:43:00 AM 39.2569 -86.2599 335° Northwest  Level FlightAware Approximate
Mon 09:44:00 AM 39.3643 -86.3240 335° Northwest  Level FlightAware Approximate
Mon 09:45:00 AM 39.4717 -86.3883 335° Northwest  Level FlightAware Approximate
Mon 09:46:00 AM 39.5790 -86.4528 335° Northwest  Level FlightAware Approximate
Mon 09:47:00 AM 39.6864 -86.5175 335° Northwest  Level FlightAware Approximate
Mon 09:48:00 AM 39.7936 -86.5825 335° Northwest  Level FlightAware Approximate
Mon 09:49:00 AM 39.8992 -86.6518 331° Northwest  Level FlightAware Approximate
Mon 09:50:00 AM 40.0051 -86.7201 333° Northwest  Level FlightAware Approximate
Mon 09:51:00 AM 40.1105 -86.7903 333° Northwest  Level FlightAware Approximate
Mon 09:52:00 AM 40.2166 -86.8589 334° Northwest  Level FlightAware Approximate
Mon 09:53:00 AM 40.3230 -86.9267 334° Northwest  Level FlightAware Approximate
Mon 09:54:00 AM 40.4301 -86.9928 335° Northwest  Level FlightAware Approximate
Mon 09:55:00 AM 40.5372 -87.0588 335° Northwest  Level FlightAware Approximate
Mon 09:56:00 AM 40.6474 -87.1154 339° North  Level FlightAware Approximate
Mon 09:57:00 AM 40.7577 -87.1692 346° North  Level FlightAware Approximate
Mon 09:58:00 AM 40.8589 -87.2261 341° North  Level FlightAware Approximate
Mon 09:59:00 AM 40.9708 -87.2770 339° North  Level FlightAware Approximate
Mon 10:00:00 AM 41.0806 -87.3354 337° Northwest  Level FlightAware Approximate
Mon 10:01:00 AM 41.1900 -87.3950 339° North  Level FlightAware Approximate
Mon 10:02:00 AM 41.2996 -87.4543 338° Northwest  Level FlightAware Approximate
Mon 10:03:00 AM 41.4094 -87.5130 339° North  Level FlightAware Approximate
Mon 10:04:00 AM 41.5187 -87.5723 342° North  Level FlightAware Approximate
Mon 10:05:00 AM 41.6274 -87.6319 337° Northwest  Level FlightAware Approximate
Mon 10:06:00 AM 41.7367 -87.6926 337° Northwest  Level FlightAware Approximate
Mon 10:07:00 AM 41.8487 -87.7438 342° North  Level FlightAware Approximate
Mon 10:08:00 AM 41.9602 -87.7968 340° North  Level FlightAware Approximate
Mon 10:09:00 AM 42.0607 -87.8584 342° North  Level FlightAware Approximate
Mon 10:10:00 AM 42.1143 -87.9015 323° Northwest  Level Estimated
Mon 10:11:00 AM 42.1143 -87.9015 160° South  Level Estimated
Mon 10:12:00 AM 42.1143 -87.9015 166° South  Level Estimated
Mon 10:13:00 AM 42.1143 -87.9015 166° South  Level Estimated
Mon 10:14:00 AM 42.1143 -87.9015 166° South  Level Estimated
Mon 10:15:00 AM 42.1143 -87.9015 166° South  Level Estimated
Mon 10:16:00 AM 42.1143 -87.9015 166° South  Level Estimated
Mon 10:17:00 AM 42.1143 -87.9015 166° South  Level Estimated
Mon 10:18:00 AM 42.1143 -87.9015 166° South  Level Estimated
Mon 10:19:00 AM 42.1143 -87.9015 166° South  Level Estimated
Mon 10:20:00 AM 42.1143 -87.9015 166° South  Level Estimated
Mon 10:21:00 AM 42.1143 -87.9015 166° South  Level Estimated
Mon 10:22:00 AM 42.1143 -87.9015 166° South  Level Estimated
Mon 10:23:00 AM 42.1143 -87.9015 166° South  Level Estimated
Mon 10:24:00 AM 42.1143 -87.9015 166° South  Level Estimated

Login

Don't have an account? Register now (free) for customized features, flight alerts, and more!